OIZI  Iran Shahr  Airport

Iranshahr, Iran

Add Bookmark
ICAO OIZI
Type Airport
Status Operational
Latitude
27° 14' 9" N
27.236099
Longitude
60° 43' 12" E
60.720001
Local (DST + 5) UTC (GMT + 4)
Aug 4, 2015 02:12 Aug 4, 2015 09:42
Sunrise-Sunset Local UTC
Begin Civil Twilight 05:26 00:56
Sunrise 05:51 01:21
Sunset 07:15 14:45
End Civil Twilight 07:40 15:10
VFR
VFR
MVFR
MVFR
IFR
IFR
LIFR
LIFR
Unknown
Unavailable

Current Weather

METAR Observed VFR
OIZI 040900Z 22004KT CAVOK 41/04 Q1005 Tue, Aug 4, 2015 @ 09:00 UTC
(42 Minutes ago)
Visual Flight Rules
Wind Visibility Conditions
220° at 4 knots (7 kph) 10 km or more
  • No significant weather
Temperatures Readings Precipitation
Current Temp
41°C
106°F
Dewpoint
4°C
39°F
Humidity 10%
Altimeter 29.68" Hg
Sea Level Pressure 1,005 mb
Field Elevation
591 m
1,939 ft
None Recorded
-
-

CheckWX.com is intended as a tool to help pilots better visualize weather data. It is not intended as a substitute for an official weather briefing obtained from a Flight Service Station. CheckWX.com does not meet the FAA requirements for an official pre-flight weather briefing. Therefore, it's important that pilots still call and obtain an official FSS pre-flight weather briefing.

© 2007-2015 CheckWX.com
09:42:03 UTC